^^
Datos históricos de la estación: Murcia-Puente Tocinos
Diario Informe para Junio 29, 2019 Unidades:  Ingés    Métrico   Ambas
Diario Semanal Mensual Anual
  Máxima: Mínima: Promedio:
Temperatura: 65.1 °F 52.2 °F 57.6 °F
Punto de rocio: 41 °F 37.2 °F 38.8 °F
Humedad: 59.7% 41% 50%
Velocidad viento: 11.2mph 1.4mph 4.1mph
Racha viento: 22mph - -
Viento- - SSO
Presión: 30 in 29.8 in -
Precipitación: 0 in    
 
 
Tabla de datos para Junio 29, 2019
Hora Temperatura Punto de rocio Presión Viento Velocidad viento Racha viento Humedad Intensidad lluvia(por hora) Nubes
00:04 57.7 °F 37.4 °F 30 in OSO 5.9 mph 13.5 mph 46.6% 0 in
00:09 57.7 °F 37.6 °F 30 in OSO 5.6 mph 13 mph 47% 0 in
00:14 57.9 °F 37.8 °F 30 in OSO 5.4 mph 9.2 mph 47% 0 in
00:19 57.7 °F 37.6 °F 30 in OSO 5.4 mph 9.2 mph 47% 0 in
00:24 57.7 °F 37.6 °F 30 in OSO 5.4 mph 8 mph 47% 0 in
00:29 57.6 °F 37.6 °F 30 in SSO 4.1 mph 6 mph 47.1% 0 in
00:34 57.4 °F 37.4 °F 30 in SSE 3.1 mph 5.2 mph 47.3% 0 in
00:39 56.3 °F 37.2 °F 30 in Este 3.1 mph 6.9 mph 48.6% 0 in
00:44 55.4 °F 37.2 °F 30 in ESE 3.1 mph 8.1 mph 50.4% 0 in
00:49 55.2 °F 37.4 °F 30 in ESE 4.3 mph 9.7 mph 51% 0 in
00:54 55.6 °F 37.6 °F 30 in ESE 5.2 mph 10.2 mph 51% 0 in
00:59 56.3 °F 37.9 °F 30 in ESE 6.3 mph 12.7 mph 50.1% 0 in
01:04 57.2 °F 38.1 °F 30 in ESE 6.9 mph 13 mph 48.8% 0 in
01:09 57.7 °F 38.1 °F 30 in ESE 6.3 mph 12 mph 48% 0 in
01:14 57.7 °F 38.3 °F 30 in SE 5.9 mph 7 mph 48% 0 in
01:19 58.1 °F 38.3 °F 30 in SSE 4.6 mph 9.2 mph 47.6% 0 in
01:24 58.5 °F 38.3 °F 30 in ESE 3.6 mph 9 mph 47% 0 in
01:29 58.5 °F 38.3 °F 30 in SE 3.3 mph 6.9 mph 47% 0 in
01:34 58.5 °F 38.3 °F 30 in SSO 3.1 mph 7 mph 47% 0 in
01:39 58.5 °F 38.1 °F 30 in SSE 3.1 mph 7.4 mph 47% 0 in
01:44 58.5 °F 38.3 °F 30 in SSO 3.1 mph 7 mph 47% 0 in
01:49 58.5 °F 38.3 °F 30 in SSO 3.8 mph 6.9 mph 47% 0 in
01:54 58.3 °F 38.3 °F 30 in SSO 4.3 mph 8.1 mph 47.3% 0 in
01:59 58.3 °F 38.5 °F 30 in Sur 4.3 mph 8.5 mph 47.8% 0 in
02:04 58.3 °F 38.1 °F 30 in SSO 4.3 mph 9 mph 47% 0 in
02:09 58.3 °F 38.3 °F 30 in SO 4.3 mph 8 mph 47.3% 0 in
02:14 58.3 °F 38.3 °F 30 in SSO 4.3 mph 6 mph 47.2% 0 in
02:19 58.3 °F 38.5 °F 30 in SO 3.9 mph 6.2 mph 47.8% 0 in
02:24 58.3 °F 38.7 °F 30 in Sur 3.6 mph 6 mph 48% 0 in
02:29 57.9 °F 38.3 °F 30 in Sur 3.3 mph 6.2 mph 48% 0 in
02:34 57.7 °F 38.3 °F 30 in SSO 3.1 mph 6 mph 48% 0 in
02:39 57.7 °F 38.1 °F 30 in Sur 3.4 mph 6.9 mph 48.2% 0 in
02:44 57.4 °F 38.3 °F 30 in SSO 3.6 mph 7 mph 49% 0 in
02:49 57 °F 38.1 °F 30 in Sur 3.9 mph 7 mph 49% 0 in
02:54 57.2 °F 38.1 °F 30 in SSO 4 mph 6 mph 49% 0 in
02:59 57.4 °F 38.5 °F 30 in SO 4 mph 6 mph 49% 0 in
03:04 57.4 °F 38.5 °F 30 in SO 4 mph 6.2 mph 49% 0 in
03:09 57.4 °F 38.1 °F 30 in OSO 3.4 mph 8.1 mph 48.5% 0 in
03:14 57.4 °F 37.8 °F 30 in Oeste 2.9 mph 8.1 mph 48% 0 in
03:19 57.4 °F 37.8 °F 30 in ONO 4.3 mph 10.4 mph 48% 0 in
03:24 57.2 °F 37.9 °F 30 in Oeste 5.4 mph 10 mph 48.6% 0 in
03:29 56.8 °F 37.9 °F 30 in Oeste 5.4 mph 10.4 mph 49% 0 in
03:34 56.7 °F 37.9 °F 30 in Oeste 5.4 mph 10 mph 49.4% 0 in
03:39 56.5 °F 37.9 °F 30 in Oeste 5.3 mph 10 mph 50% 0 in
03:44 56.1 °F 37.8 °F 30 in Oeste 5.2 mph 8 mph 50% 0 in
03:49 55.8 °F 37.9 °F 30 in Oeste 4 mph 6 mph 51% 0 in
03:54 55.6 °F 37.8 °F 30 in OSO 3.1 mph 5.2 mph 51% 0 in
03:59 55.6 °F 37.8 °F 30 in SO 3 mph 5 mph 51% 0 in
04:04 55.6 °F 37.8 °F 30 in SO 2.9 mph 5 mph 51% 0 in
04:09 55.6 °F 37.8 °F 30 in SO 2.3 mph 3 mph 51% 0 in
04:14 55.4 °F 37.9 °F 30 in SO 1.8 mph 3 mph 51.9% 0 in
04:19 55.2 °F 37.9 °F 30 in SO 1.6 mph 3 mph 52% 0 in
04:24 55 °F 37.8 °F 30 in SO 1.4 mph 2.3 mph 52% 0 in
04:29 54.9 °F 37.8 °F 30 in SO 1.4 mph 3.5 mph 52.5% 0 in
04:34 54.9 °F 37.9 °F 30 in SO 1.4 mph 4 mph 53% 0 in
04:39 54.9 °F 37.9 °F 30 in OSO 1.7 mph 4.6 mph 53% 0 in
04:44 54.9 °F 37.9 °F 30 in OSO 2 mph 5.2 mph 53% 0 in
04:49 54.5 °F 37.9 °F 30 in OSO 2.2 mph 5.2 mph 53.4% 0 in
04:54 54.1 °F 37.8 °F 30 in Oeste 2.4 mph 6.9 mph 54% 0 in
04:59 54.1 °F 37.8 °F 30 in ONO 3.5 mph 17.3 mph 53.8% 0 in
05:04 55.2 °F 38.1 °F 30 in ONO 4.3 mph 17 mph 52.5% 0 in
05:09 55.9 °F 38.1 °F 30 in ONO 7.1 mph 16.1 mph 51.2% 0 in
05:14 56.1 °F 38.1 °F 30 in ONO 9.2 mph 18.4 mph 51% 0 in
05:19 56.1 °F 38.1 °F 30 in ONO 8.3 mph 18.4 mph 50.7% 0 in
05:24 56.7 °F 38.1 °F 30 in ONO 7.6 mph 21.9 mph 50% 0 in
05:29 56.8 °F 37.9 °F 30 in ONO 9.6 mph 22 mph 49.1% 0 in
05:34 56.7 °F 38.1 °F 30 in Oeste 11.2 mph 18.4 mph 49.7% 0 in
05:39 56.5 °F 38.1 °F 30 in OSO 10.1 mph 18 mph 50% 0 in
05:44 55.8 °F 37.9 °F 30 in OSO 9.2 mph 13 mph 51% 0 in
05:49 55.2 °F 37.9 °F 30 in OSO 6.9 mph 9 mph 52% 0 in
05:54 54.9 °F 37.9 °F 30 in OSO 5.2 mph 7 mph 53% 0 in
05:59 54.1 °F 37.8 °F 30 in OSO 4.2 mph 7.4 mph 53.8% 0 in
06:04 54 °F 37.8 °F 30 in OSO 3.6 mph 9.2 mph 54.3% 0 in
06:09 53.8 °F 37.9 °F 30 in Oeste 4.2 mph 9 mph 55% 0 in
06:14 53.4 °F 37.6 °F 30 in OSO 4.7 mph 7.4 mph 55% 0 in
06:19 53.4 °F 37.9 °F 30 in SO 4.5 mph 7 mph 55.5% 0 in
06:24 53.2 °F 37.9 °F 30 in OSO 4.3 mph 6.9 mph 56% 0 in
06:29 53.4 °F 38.1 °F 30 in OSO 4.2 mph 7 mph 56% 0 in
06:34 53.4 °F 38.1 °F 30 in OSO 4 mph 7 mph 56% 0 in
06:39 53.4 °F 38.1 °F 30 in OSO 3.5 mph 5.4 mph 56% 0 in
06:44 53.6 °F 38.1 °F 30 in SO 3.1 mph 6 mph 55.6% 0 in
06:49 53.8 °F 37.9 °F 30 in SO 3.4 mph 6 mph 55% 0 in
06:54 54 °F 38.1 °F 30 in SO 3.6 mph 5.9 mph 55% 0 in
06:59 54.1 °F 37.9 °F 30 in OSO 3.6 mph 6.9 mph 54.3% 0 in
07:04 54.3 °F 37.9 °F 30 in OSO 3.6 mph 8.5 mph 54% 0 in
07:09 54.3 °F 38.1 °F 30 in Oeste 4 mph 9 mph 54.1% 0 in
07:14 54.3 °F 38.5 °F 30 in Oeste 4.3 mph 9.7 mph 54.7% 0 in
07:19 54.7 °F 38.3 °F 30 in Oeste 5.2 mph 10.7 mph 54% 0 in
07:24 54.5 °F 38.3 °F 30 in Oeste 5.9 mph 11 mph 54.2% 0 in
07:29 54.5 °F 38.5 °F 30 in SO 3.9 mph 6 mph 54.6% 0 in
07:34 54.1 °F 38.1 °F 30 in SE 2.4 mph 5.9 mph 54.8% 0 in
07:39 53.4 °F 38.1 °F 30 in SSE 2.8 mph 6 mph 56% 0 in
07:44 53.1 °F 38.1 °F 30 in SSE 3.1 mph 5 mph 57% 0 in
07:49 52.7 °F 38.3 °F 30 in SSE 3.1 mph 5.8 mph 57.8% 0 in
07:54 52.5 °F 38.1 °F 30 in SSE 3.1 mph 6 mph 58% 0 in
07:59 52.5 °F 38.1 °F 30 in SE 3.1 mph 5.8 mph 58% 0 in
08:04 52.5 °F 38.7 °F 30 in SSE 3.1 mph 6 mph 59% 0 in
08:09 52.5 °F 38.5 °F 30 in SSE 3.1 mph 5 mph 58.9% 0 in
08:14 52.5 °F 38.1 °F 30 in SE 3.1 mph 8.1 mph 58% 0 in
08:19 52.5 °F 38.3 °F 30 in SE 2.5 mph 8 mph 58.3% 0 in
08:24 52.5 °F 38.7 °F 30 in NO 2 mph 5.8 mph 59% 0 in
08:29 52.3 °F 38.5 °F 30 in NO 2.2 mph 6 mph 59% 0 in
08:34 52.2 °F 38.3 °F 30 in NO 2.4 mph 5.2 mph 59% 0 in
08:39 52.2 °F 38.3 °F 30 in NO 2.7 mph 5.2 mph 59% 0 in
08:44 52.3 °F 38.3 °F 30 in ONO 2.9 mph 5 mph 59% 0 in
08:49 52.3 °F 38.5 °F 30 in SSO 2.4 mph 5.2 mph 59% 0 in
08:54 52.7 °F 38.5 °F 30 in SE 2 mph 5 mph 58.5% 0 in
08:59 53.1 °F 38.7 °F 30 in Este 2.5 mph 5 mph 58% 0 in
09:04 53.1 °F 38.7 °F 30 in ENE 2.9 mph 5 mph 58% 0 in
09:09 53.1 °F 38.7 °F 30 in SE 2.3 mph 6.2 mph 58% 0 in
09:14 52.9 °F 38.8 °F 30 in SE 1.8 mph 7.4 mph 58.9% 0 in
09:19 52.5 °F 38.8 °F 30 in SE 3.2 mph 8.1 mph 59.2% 0 in
09:24 52.7 °F 39 °F 30 in SSE 4.3 mph 8.1 mph 59.7% 0 in
09:29 53.1 °F 39 °F 30 in SE 4.5 mph 8 mph 58.9% 0 in
09:34 53.4 °F 39 °F 30 in Este 4.7 mph 6 mph 58% 0 in
09:39 54 °F 39 °F 30 in SSO 3.5 mph 5 mph 57.3% 0 in
09:44 54.1 °F 39.2 °F 30 in SO 2.4 mph 5 mph 57% 0 in
09:49 54.3 °F 39.4 °F 30 in SSO 2.4 mph 5 mph 56.7% 0 in
09:54 54.9 °F 39.4 °F 30 in Sur 2.4 mph 5 mph 56% 0 in
09:59 55.2 °F 39.4 °F 30 in Oeste 2.4 mph 5 mph 55.2% 0 in
10:04 55.6 °F 39.6 °F 30 in Sur 2.4 mph 6.9 mph 54.7% 0 in
10:09 55.8 °F 39.4 °F 30 in Sur 2.8 mph 7 mph 54% 0 in
10:14 55.9 °F 39.6 °F 30 in SO 3.1 mph 6 mph 54% 0 in
10:19 55.9 °F 39.6 °F 30 in Oeste 2.7 mph 5 mph 54% 0 in
10:24 55.9 °F 39.2 °F 30 in OSO 2.4 mph 5.2 mph 53.3% 0 in
10:29 55.9 °F 39.6 °F 30 in SO 2.8 mph 5.4 mph 53.9% 0 in
10:34 56.1 °F 39.6 °F 30 in SSO 3.1 mph 8.5 mph 53.8% 0 in
10:39 56.1 °F 39.6 °F 30 in Sur 3.4 mph 9 mph 53.7% 0 in
10:44 56.1 °F 39.7 °F 30 in SSO 3.6 mph 6 mph 54% 0 in
10:49 56.1 °F 39.7 °F 30 in SSO 3.6 mph 6.2 mph 54% 0 in
10:54 56.1 °F 39.7 °F 30 in SSO 3.6 mph 6 mph 54% 0 in
10:59 56.1 °F 39.7 °F 30 in SO 3.3 mph 6.9 mph 54% 0 in
11:04 56.1 °F 39.7 °F 30 in OSO 3.1 mph 7 mph 54% 0 in
11:09 56.3 °F 39.9 °F 30 in OSO 3.4 mph 7 mph 54% 0 in
11:14 56.7 °F 40.1 °F 30 in SSO 3.6 mph 6 mph 54% 0 in
11:19 56.8 °F 39.9 °F 30 in SO 3.6 mph 8.5 mph 53% 0 in
11:24 57.2 °F 39.9 °F 30 in OSO 3.6 mph 9.7 mph 52.1% 0 in
11:29 57.6 °F 39.9 °F 30 in SO 4.5 mph 11.5 mph 52% 0 in
11:34 57.6 °F 40.1 °F 30 in Sur 5.2 mph 12 mph 52% 0 in
11:39 57.6 °F 39.7 °F 30 in Sur 5.2 mph 9.2 mph 51.2% 0 in
11:44 57.6 °F 39.6 °F 30 in Sur 5.2 mph 9 mph 51% 0 in
11:49 57.7 °F 39.7 °F 30 in Sur 5.2 mph 7 mph 51% 0 in
11:54 58.3 °F 39.9 °F 30 in Sur 5.2 mph 8.5 mph 50.2% 0 in
11:59 58.6 °F 39.9 °F 30 in SSE 4.9 mph 9 mph 49.8% 0 in
12:04 59.2 °F 40.1 °F 30 in Sur 4.7 mph 8 mph 49% 0 in
12:09 59.5 °F 40.1 °F 29.9 in SSO 4.5 mph 16.1 mph 48.5% 0 in
12:14 60.3 °F 40.3 °F 29.9 in SSO 4.3 mph 16 mph 47.8% 0 in
12:19 60.3 °F 40.3 °F 29.9 in SSO 5.5 mph 13 mph 47.9% 0 in
12:24 60.4 °F 40.3 °F 29.9 in Sur 6.4 mph 11.5 mph 47.4% 0 in
12:29 60.6 °F 40.3 °F 29.9 in SSO 5.8 mph 12 mph 47% 0 in
12:34 60.8 °F 40.3 °F 29.9 in SO 5.4 mph 12 mph 46.7% 0 in
12:39 61 °F 39.7 °F 29.9 in OSO 5.4 mph 11.5 mph 45.7% 0 in
12:44 61.3 °F 39.7 °F 29.9 in OSO 5.4 mph 12 mph 45% 0 in
12:49 61.5 °F 40.1 °F 29.9 in SSO 5.7 mph 10.7 mph 45.1% 0 in
12:54 61.5 °F 39.9 °F 29.9 in SO 5.9 mph 11 mph 45% 0 in
12:59 61.7 °F 40.1 °F 29.9 in OSO 4.7 mph 9 mph 44.9% 0 in
13:04 61.9 °F 40.3 °F 29.9 in OSO 4 mph 7 mph 45% 0 in
13:09 62.1 °F 40.3 °F 29.9 in Oeste 3.4 mph 7.4 mph 44.7% 0 in
13:14 62.1 °F 39.9 °F 29.9 in ONO 2.9 mph 7.4 mph 44% 0 in
13:19 62.2 °F 39.9 °F 29.9 in ONO 3 mph 7 mph 44% 0 in
13:24 62.2 °F 39.6 °F 29.9 in Oeste 3.1 mph 8.5 mph 43.2% 0 in
13:29 62.2 °F 39.7 °F 29.9 in Oeste 3.8 mph 9 mph 43.2% 0 in
13:34 62.4 °F 39.7 °F 29.9 in Oeste 4.3 mph 8.1 mph 43.3% 0 in
13:39 62.4 °F 40.3 °F 29.9 in ONO 3.9 mph 8 mph 44% 0 in
13:44 62.4 °F 40.5 °F 29.9 in NNO 3.6 mph 10.2 mph 44.4% 0 in
13:49 62.4 °F 40.5 °F 29.9 in NO 4.2 mph 10.4 mph 44.5% 0 in
13:54 62.4 °F 40.5 °F 29.9 in North 4.7 mph 8 mph 44.5% 0 in
13:59 62.4 °F 40.6 °F 29.9 in North 4.3 mph 8.1 mph 44.8% 0 in
14:04 62.6 °F 40.6 °F 29.9 in NNE 4 mph 6 mph 44.4% 0 in
14:09 63 °F 40.6 °F 29.9 in NNE 3.4 mph 6.9 mph 44.1% 0 in
14:14 63.3 °F 40.6 °F 29.9 in NE 2.9 mph 7 mph 43.4% 0 in
14:19 63.3 °F 40.6 °F 29.9 in NE 3.3 mph 7 mph 43.4% 0 in
14:24 63.7 °F 40.8 °F 29.9 in NNE 3.6 mph 7 mph 43% 0 in
14:29 64 °F 41 °F 29.9 in North 2.9 mph 7 mph 43% 0 in
14:34 64.4 °F 41 °F 29.9 in North 2.4 mph 8.5 mph 42.4% 0 in
14:39 64.2 °F 40.8 °F 29.8 in NNO 3.3 mph 9 mph 42.2% 0 in
14:44 64.2 °F 40.8 °F 29.8 in North 4 mph 7.4 mph 42.4% 0 in
14:49 64.2 °F 41 °F 29.8 in NNE 3.8 mph 7 mph 42.7% 0 in
14:54 64.2 °F 40.6 °F 29.8 in NNO 3.6 mph 8.1 mph 42% 0 in
14:59 64.2 °F 41 °F 29.8 in NNE 3.9 mph 8 mph 42.6% 0 in
15:04 64.2 °F 40.6 °F 29.8 in North 4 mph 6 mph 42% 0 in
15:09 64.4 °F 40.6 °F 29.8 in NNO 3.4 mph 6.4 mph 42% 0 in
15:14 64.4 °F 40.8 °F 29.8 in NNO 2.9 mph 7 mph 42% 0 in
15:19 64.6 °F 41 °F 29.8 in NNO 2.9 mph 7 mph 42% 0 in
15:24 64.8 °F 40.8 °F 29.8 in NO 2.9 mph 7.6 mph 41.5% 0 in
15:29 64.9 °F 40.6 °F 29.8 in ONO 3.3 mph 8.1 mph 41% 0 in
15:34 64.9 °F 40.6 °F 29.8 in NO 3.6 mph 7 mph 41% 0 in
15:39 64.9 °F 40.8 °F 29.8 in NNE 3.3 mph 7 mph 41% 0 in
15:42 65.1 °F 40.8 °F 29.8 in NE 3.1 mph 6 mph 41% 0 in
20:54 59.5 °F 38.1 °F 29.8 in Sur 4 mph 6.9 mph 45% 0 in
20:59 59.4 °F 38.1 °F 29.8 in Sur 4 mph 7 mph 45% 0 in
21:04 59.4 °F 37.9 °F 29.8 in Sur 4 mph 7.4 mph 45% 0 in
21:09 59.2 °F 38.3 °F 29.8 in Sur 4.4 mph 8.1 mph 45.9% 0 in
21:14 59 °F 38.1 °F 29.8 in Sur 4.7 mph 8.1 mph 46% 0 in
21:19 58.6 °F 37.9 °F 29.8 in Sur 5.1 mph 10.4 mph 46% 0 in
21:24 58.6 °F 37.9 °F 29.8 in Sur 5.4 mph 10 mph 46% 0 in
21:29 58.8 °F 38.1 °F 29.8 in Sur 6.3 mph 9.2 mph 46% 0 in
21:34 58.8 °F 38.1 °F 29.8 in Sur 6.9 mph 9.2 mph 46% 0 in
21:39 59 °F 38.1 °F 29.8 in Sur 6.3 mph 9 mph 46% 0 in
21:44 59 °F 38.3 °F 29.8 in Sur 5.9 mph 10.4 mph 46% 0 in
21:49 59.2 °F 38.5 °F 29.8 in Sur 6.1 mph 10 mph 46% 0 in
21:54 59.4 °F 38.5 °F 29.8 in SSE 6.2 mph 8.1 mph 46% 0 in
21:59 59.4 °F 38.5 °F 29.8 in SE 5.7 mph 8.1 mph 46% 0 in
22:04 59 °F 38.5 °F 29.8 in SE 5.4 mph 8.1 mph 46.5% 0 in
22:09 58.6 °F 38.5 °F 29.8 in SE 5.4 mph 8.1 mph 47% 0 in
22:14 58.6 °F 38.5 °F 29.8 in SE 5.4 mph 8.1 mph 47.3% 0 in
22:19 58.5 °F 38.7 °F 29.8 in SSE 5.3 mph 8.1 mph 47.6% 0 in
22:24 58.6 °F 38.5 °F 29.8 in SO 5.2 mph 8.1 mph 47% 0 in
22:29 58.6 °F 38.5 °F 29.8 in SO 4.7 mph 10 mph 47% 0 in
22:34 59 °F 38.7 °F 29.8 in SSO 4.3 mph 10.4 mph 46.6% 0 in
22:39 59.5 °F 38.7 °F 29.8 in Sur 5.4 mph 13.8 mph 46% 0 in
22:44 59.7 °F 38.3 °F 29.8 in SO 6.2 mph 14 mph 45% 0 in
22:49 59.7 °F 38.7 °F 29.8 in SSO 5.6 mph 9 mph 45.6% 0 in
22:54 59.5 °F 38.7 °F 29.8 in SSO 5.2 mph 10.7 mph 46% 0 in
22:59 59.5 °F 38.7 °F 29.8 in SSO 5.3 mph 11 mph 46% 0 in
23:04 59.5 °F 38.7 °F 29.8 in SO 5.4 mph 8.1 mph 46% 0 in
23:09 59.5 °F 38.8 °F 29.8 in Oeste 4.8 mph 8 mph 46.2% 0 in
23:14 59.4 °F 39 °F 29.8 in OSO 4.3 mph 7 mph 47% 0 in
23:19 59 °F 38.8 °F 29.8 in SSO 3.6 mph 6 mph 47% 0 in
23:24 58.6 °F 39 °F 29.8 in ONO 3.1 mph 7.4 mph 47.9% 0 in
23:29 58.6 °F 39 °F 29.8 in SO 3.4 mph 7 mph 48% 0 in
23:34 58.6 °F 39 °F 29.8 in SO 3.6 mph 7 mph 48% 0 in
23:39 58.6 °F 39 °F 29.8 in SSO 3.2 mph 5 mph 48% 0 in
23:44 58.5 °F 39.2 °F 29.8 in SSO 2.9 mph 5.4 mph 48.6% 0 in
23:49 58.5 °F 39.4 °F 29.8 in SSO 2.6 mph 6.9 mph 49% 0 in
23:54 58.5 °F 39.4 °F 29.8 in Sur 2.4 mph 7 mph 49% 0 in
23:59 58.5 °F 39.4 °F 29.8 in SO 2.7 mph 5.2 mph 49% 0 in
Murcia-Puente Tocinos, España
Compliments of Weather Underground - 2.5 mb

La estación de MeteoMurcia.com, publica sus datos en los siguientes proyectos:

Weather Underground PWS IMURCIAP2 Meteoclimatic www.awekas.at

W3Counter
Web Analytics